sensor_id;sensor_type;location;lat;lon;timestamp;P1;durP1;ratioP1;P2;durP2;ratioP2
24961;SDS011;12992;50.884;13.668;2022-08-11T00:01:43;3.58;;;3.00;;
24961;SDS011;12992;50.884;13.668;2022-08-11T00:04:10;3.90;;;2.95;;
24961;SDS011;12992;50.884;13.668;2022-08-11T00:06:38;5.65;;;2.60;;
24961;SDS011;12992;50.884;13.668;2022-08-11T00:09:08;4.80;;;2.80;;
24961;SDS011;12992;50.884;13.668;2022-08-11T00:11:43;3.90;;;3.05;;
24961;SDS011;12992;50.884;13.668;2022-08-11T00:14:14;7.05;;;3.60;;
24961;SDS011;12992;50.884;13.668;2022-08-11T00:16:43;3.72;;;2.67;;
24961;SDS011;12992;50.884;13.668;2022-08-11T00:19:22;5.60;;;3.55;;
24961;SDS011;12992;50.884;13.668;2022-08-11T00:21:50;4.20;;;2.90;;
24961;SDS011;12992;50.884;13.668;2022-08-11T00:24:17;2.95;;;2.65;;
24961;SDS011;12992;50.884;13.668;2022-08-11T00:26:46;4.40;;;2.72;;
24961;SDS011;12992;50.884;13.668;2022-08-11T00:29:16;3.30;;;2.65;;
24961;SDS011;12992;50.884;13.668;2022-08-11T00:31:47;3.38;;;2.58;;
24961;SDS011;12992;50.884;13.668;2022-08-11T00:34:16;4.93;;;2.65;;
24961;SDS011;12992;50.884;13.668;2022-08-11T00:36:57;3.65;;;2.70;;
24961;SDS011;12992;50.884;13.668;2022-08-11T00:39:27;3.38;;;2.63;;
24961;SDS011;12992;50.884;13.668;2022-08-11T00:48:04;3.63;;;2.70;;
24961;SDS011;12992;50.884;13.668;2022-08-11T00:53:29;5.25;;;2.58;;
24961;SDS011;12992;50.884;13.668;2022-08-11T00:59:18;3.63;;;2.47;;
24961;SDS011;12992;50.884;13.668;2022-08-11T01:05:06;3.35;;;2.47;;
24961;SDS011;12992;50.884;13.668;2022-08-11T01:08:00;3.45;;;2.55;;
24961;SDS011;12992;50.884;13.668;2022-08-11T01:11:32;4.33;;;2.70;;
24961;SDS011;12992;50.884;13.668;2022-08-11T01:22:29;3.80;;;2.53;;
24961;SDS011;12992;50.884;13.668;2022-08-11T01:25:21;3.63;;;2.30;;
24961;SDS011;12992;50.884;13.668;2022-08-11T01:34:20;4.00;;;2.53;;
24961;SDS011;12992;50.884;13.668;2022-08-11T01:46:10;4.35;;;2.60;;
24961;SDS011;12992;50.884;13.668;2022-08-11T01:51:37;4.82;;;2.83;;
24961;SDS011;12992;50.884;13.668;2022-08-11T01:54:35;2.88;;;2.45;;
24961;SDS011;12992;50.884;13.668;2022-08-11T01:57:12;4.85;;;2.88;;
24961;SDS011;12992;50.884;13.668;2022-08-11T01:59:50;4.05;;;2.70;;
24961;SDS011;12992;50.884;13.668;2022-08-11T02:02:33;3.70;;;2.50;;
24961;SDS011;12992;50.884;13.668;2022-08-11T02:13:39;3.10;;;2.75;;
24961;SDS011;12992;50.884;13.668;2022-08-11T02:19:03;3.00;;;2.58;;
24961;SDS011;12992;50.884;13.668;2022-08-11T02:22:02;5.75;;;2.90;;
24961;SDS011;12992;50.884;13.668;2022-08-11T02:25:02;4.13;;;3.17;;
24961;SDS011;12992;50.884;13.668;2022-08-11T02:27:35;3.28;;;2.60;;
24961;SDS011;12992;50.884;13.668;2022-08-11T02:30:09;3.25;;;2.65;;
24961;SDS011;12992;50.884;13.668;2022-08-11T02:33:07;2.88;;;2.40;;
24961;SDS011;12992;50.884;13.668;2022-08-11T02:36:09;4.07;;;2.85;;
24961;SDS011;12992;50.884;13.668;2022-08-11T02:39:03;3.05;;;2.75;;
24961;SDS011;12992;50.884;13.668;2022-08-11T02:41:41;5.95;;;3.03;;
24961;SDS011;12992;50.884;13.668;2022-08-11T02:45:10;3.50;;;3.00;;
24961;SDS011;12992;50.884;13.668;2022-08-11T02:47:57;5.93;;;3.08;;
24961;SDS011;12992;50.884;13.668;2022-08-11T02:51:06;4.05;;;2.88;;
24961;SDS011;12992;50.884;13.668;2022-08-11T02:53:45;3.33;;;3.03;;
24961;SDS011;12992;50.884;13.668;2022-08-11T02:56:41;3.20;;;2.90;;
24961;SDS011;12992;50.884;13.668;2022-08-11T02:59:19;4.82;;;3.10;;
24961;SDS011;12992;50.884;13.668;2022-08-11T03:02:09;4.93;;;3.35;;
24961;SDS011;12992;50.884;13.668;2022-08-11T03:04:48;3.42;;;2.92;;
24961;SDS011;12992;50.884;13.668;2022-08-11T03:07:20;6.32;;;3.30;;
24961;SDS011;12992;50.884;13.668;2022-08-11T03:09:57;4.45;;;3.33;;
24961;SDS011;12992;50.884;13.668;2022-08-11T03:12:48;4.03;;;3.33;;
24961;SDS011;12992;50.884;13.668;2022-08-11T03:15:41;6.20;;;3.35;;
24961;SDS011;12992;50.884;13.668;2022-08-11T03:18:36;8.98;;;3.20;;
24961;SDS011;12992;50.884;13.668;2022-08-11T03:21:17;4.80;;;3.25;;
24961;SDS011;12992;50.884;13.668;2022-08-11T03:23:58;3.72;;;3.10;;
24961;SDS011;12992;50.884;13.668;2022-08-11T03:26:32;3.40;;;3.10;;
24961;SDS011;12992;50.884;13.668;2022-08-11T03:31:55;3.65;;;3.00;;
24961;SDS011;12992;50.884;13.668;2022-08-11T03:34:26;7.95;;;3.25;;
24961;SDS011;12992;50.884;13.668;2022-08-11T03:37:18;4.93;;;3.47;;
24961;SDS011;12992;50.884;13.668;2022-08-11T03:42:41;4.40;;;3.35;;
24961;SDS011;12992;50.884;13.668;2022-08-11T03:48:08;4.10;;;3.00;;
24961;SDS011;12992;50.884;13.668;2022-08-11T03:54:37;4.32;;;3.38;;
24961;SDS011;12992;50.884;13.668;2022-08-11T03:56:51;5.30;;;3.53;;
24961;SDS011;12992;50.884;13.668;2022-08-11T04:02:56;4.70;;;3.50;;
24961;SDS011;12992;50.884;13.668;2022-08-11T04:14:48;6.38;;;3.70;;
24961;SDS011;12992;50.884;13.668;2022-08-11T04:21:04;5.88;;;4.25;;
24961;SDS011;12992;50.884;13.668;2022-08-11T04:29:52;4.55;;;3.60;;
24961;SDS011;12992;50.884;13.668;2022-08-11T04:43:24;9.02;;;3.88;;
24961;SDS011;12992;50.884;13.668;2022-08-11T04:52:06;7.22;;;3.58;;
24961;SDS011;12992;50.884;13.668;2022-08-11T04:55:14;3.90;;;3.50;;
24961;SDS011;12992;50.884;13.668;2022-08-11T05:10:18;3.25;;;2.95;;
24961;SDS011;12992;50.884;13.668;2022-08-11T05:13:09;4.37;;;2.73;;
24961;SDS011;12992;50.884;13.668;2022-08-11T05:15:56;4.63;;;3.13;;
24961;SDS011;12992;50.884;13.668;2022-08-11T05:18:47;3.70;;;3.20;;
24961;SDS011;12992;50.884;13.668;2022-08-11T05:21:33;4.65;;;2.92;;
24961;SDS011;12992;50.884;13.668;2022-08-11T05:24:21;4.22;;;3.03;;
24961;SDS011;12992;50.884;13.668;2022-08-11T05:27:09;5.45;;;2.50;;
24961;SDS011;12992;50.884;13.668;2022-08-11T05:29:57;3.15;;;2.55;;
24961;SDS011;12992;50.884;13.668;2022-08-11T05:32:45;3.25;;;2.45;;
24961;SDS011;12992;50.884;13.668;2022-08-11T05:35:45;4.68;;;2.60;;
24961;SDS011;12992;50.884;13.668;2022-08-11T05:38:20;4.55;;;2.35;;
24961;SDS011;12992;50.884;13.668;2022-08-11T05:41:10;2.55;;;2.28;;
24961;SDS011;12992;50.884;13.668;2022-08-11T05:43:54;4.65;;;2.70;;
24961;SDS011;12992;50.884;13.668;2022-08-11T05:46:42;3.65;;;2.85;;
24961;SDS011;12992;50.884;13.668;2022-08-11T05:49:30;2.95;;;2.53;;
24961;SDS011;12992;50.884;13.668;2022-08-11T05:52:22;3.13;;;2.30;;
24961;SDS011;12992;50.884;13.668;2022-08-11T05:55:09;3.45;;;2.78;;
24961;SDS011;12992;50.884;13.668;2022-08-11T05:57:58;2.83;;;1.98;;
24961;SDS011;12992;50.884;13.668;2022-08-11T06:00:27;3.67;;;2.42;;
24961;SDS011;12992;50.884;13.668;2022-08-11T06:02:54;4.40;;;2.40;;
24961;SDS011;12992;50.884;13.668;2022-08-11T06:05:33;4.97;;;2.60;;
24961;SDS011;12992;50.884;13.668;2022-08-11T06:07:59;3.33;;;2.53;;
24961;SDS011;12992;50.884;13.668;2022-08-11T06:10:25;2.47;;;2.20;;
24961;SDS011;12992;50.884;13.668;2022-08-11T06:12:59;2.72;;;2.30;;
24961;SDS011;12992;50.884;13.668;2022-08-11T06:15:26;3.20;;;2.40;;
24961;SDS011;12992;50.884;13.668;2022-08-11T06:17:53;4.53;;;2.72;;
24961;SDS011;12992;50.884;13.668;2022-08-11T06:20:19;5.15;;;2.83;;
24961;SDS011;12992;50.884;13.668;2022-08-11T06:22:54;4.10;;;2.78;;
24961;SDS011;12992;50.884;13.668;2022-08-11T06:25:22;3.53;;;2.58;;
24961;SDS011;12992;50.884;13.668;2022-08-11T06:27:55;4.63;;;2.70;;
24961;SDS011;12992;50.884;13.668;2022-08-11T06:30:35;3.55;;;2.10;;
24961;SDS011;12992;50.884;13.668;2022-08-11T06:33:10;8.32;;;2.30;;
24961;SDS011;12992;50.884;13.668;2022-08-11T06:41:25;2.42;;;2.08;;
24961;SDS011;12992;50.884;13.668;2022-08-11T06:46:38;4.25;;;2.35;;
24961;SDS011;12992;50.884;13.668;2022-08-11T06:49:05;4.20;;;2.17;;
24961;SDS011;12992;50.884;13.668;2022-08-11T06:51:57;3.50;;;2.10;;
24961;SDS011;12992;50.884;13.668;2022-08-11T06:54:25;12.48;;;2.42;;
24961;SDS011;12992;50.884;13.668;2022-08-11T06:56:54;4.80;;;2.45;;
24961;SDS011;12992;50.884;13.668;2022-08-11T06:59:39;4.97;;;2.30;;
24961;SDS011;12992;50.884;13.668;2022-08-11T07:02:30;4.47;;;2.10;;
24961;SDS011;12992;50.884;13.668;2022-08-11T07:04:59;2.45;;;1.90;;
24961;SDS011;12992;50.884;13.668;2022-08-11T07:14:10;5.57;;;2.00;;
24961;SDS011;12992;50.884;13.668;2022-08-11T07:17:00;4.20;;;1.77;;
24961;SDS011;12992;50.884;13.668;2022-08-11T07:19:28;2.42;;;1.60;;
24961;SDS011;12992;50.884;13.668;2022-08-11T07:22:14;4.05;;;2.10;;
24961;SDS011;12992;50.884;13.668;2022-08-11T07:24:59;1.98;;;1.65;;
24961;SDS011;12992;50.884;13.668;2022-08-11T07:27:46;1.80;;;1.70;;
24961;SDS011;12992;50.884;13.668;2022-08-11T07:30:36;3.97;;;2.22;;
24961;SDS011;12992;50.884;13.668;2022-08-11T07:33:04;3.42;;;1.80;;
24961;SDS011;12992;50.884;13.668;2022-08-11T07:35:34;3.60;;;1.70;;
24961;SDS011;12992;50.884;13.668;2022-08-11T07:38:14;5.88;;;1.60;;
24961;SDS011;12992;50.884;13.668;2022-08-11T07:40:44;3.50;;;1.80;;
24961;SDS011;12992;50.884;13.668;2022-08-11T07:43:10;2.28;;;1.77;;
24961;SDS011;12992;50.884;13.668;2022-08-11T07:45:41;1.85;;;1.60;;
24961;SDS011;12992;50.884;13.668;2022-08-11T07:48:26;5.97;;;1.90;;
24961;SDS011;12992;50.884;13.668;2022-08-11T07:51:12;3.33;;;1.73;;
24961;SDS011;12992;50.884;13.668;2022-08-11T07:54:00;3.92;;;1.73;;
24961;SDS011;12992;50.884;13.668;2022-08-11T07:56:26;6.10;;;1.80;;
24961;SDS011;12992;50.884;13.668;2022-08-11T07:58:51;3.17;;;1.70;;
24961;SDS011;12992;50.884;13.668;2022-08-11T08:01:37;3.47;;;1.67;;
24961;SDS011;12992;50.884;13.668;2022-08-11T08:04:21;2.05;;;1.80;;
24961;SDS011;12992;50.884;13.668;2022-08-11T08:07:05;3.20;;;1.60;;
24961;SDS011;12992;50.884;13.668;2022-08-11T08:09:50;2.75;;;1.65;;
24961;SDS011;12992;50.884;13.668;2022-08-11T08:12:34;6.78;;;1.83;;
24961;SDS011;12992;50.884;13.668;2022-08-11T08:15:19;2.50;;;1.65;;
24961;SDS011;12992;50.884;13.668;2022-08-11T08:18:05;2.13;;;1.73;;
24961;SDS011;12992;50.884;13.668;2022-08-11T08:20:41;2.95;;;1.70;;
24961;SDS011;12992;50.884;13.668;2022-08-11T08:23:10;3.70;;;1.88;;
24961;SDS011;12992;50.884;13.668;2022-08-11T08:25:37;2.85;;;1.60;;
24961;SDS011;12992;50.884;13.668;2022-08-11T08:28:10;2.67;;;1.80;;
24961;SDS011;12992;50.884;13.668;2022-08-11T08:30:39;3.92;;;1.70;;
24961;SDS011;12992;50.884;13.668;2022-08-11T08:35:59;3.47;;;1.80;;
24961;SDS011;12992;50.884;13.668;2022-08-11T08:38:36;2.72;;;1.63;;
24961;SDS011;12992;50.884;13.668;2022-08-11T08:41:04;2.60;;;1.95;;
24961;SDS011;12992;50.884;13.668;2022-08-11T08:43:30;3.03;;;1.83;;
24961;SDS011;12992;50.884;13.668;2022-08-11T08:45:56;2.85;;;1.65;;
24961;SDS011;12992;50.884;13.668;2022-08-11T08:48:23;2.42;;;1.58;;
24961;SDS011;12992;50.884;13.668;2022-08-11T08:50:55;6.25;;;1.50;;
24961;SDS011;12992;50.884;13.668;2022-08-11T08:53:45;4.18;;;1.80;;
24961;SDS011;12992;50.884;13.668;2022-08-11T08:56:14;1.90;;;1.70;;
24961;SDS011;12992;50.884;13.668;2022-08-11T08:58:40;4.75;;;1.88;;
24961;SDS011;12992;50.884;13.668;2022-08-11T09:01:09;14.10;;;2.17;;
24961;SDS011;12992;50.884;13.668;2022-08-11T09:03:36;2.88;;;1.50;;
24961;SDS011;12992;50.884;13.668;2022-08-11T09:06:02;3.30;;;1.77;;
24961;SDS011;12992;50.884;13.668;2022-08-11T09:08:29;7.05;;;2.00;;
24961;SDS011;12992;50.884;13.668;2022-08-11T09:10:56;4.72;;;1.83;;
24961;SDS011;12992;50.884;13.668;2022-08-11T09:13:41;2.47;;;1.63;;
24961;SDS011;12992;50.884;13.668;2022-08-11T09:16:10;4.18;;;1.80;;
24961;SDS011;12992;50.884;13.668;2022-08-11T09:18:36;2.65;;;1.73;;
24961;SDS011;12992;50.884;13.668;2022-08-11T09:21:02;4.32;;;1.70;;
24961;SDS011;12992;50.884;13.668;2022-08-11T09:23:28;3.47;;;1.80;;
24961;SDS011;12992;50.884;13.668;2022-08-11T09:26:13;2.85;;;1.80;;
24961;SDS011;12992;50.884;13.668;2022-08-11T09:28:58;2.80;;;1.77;;
24961;SDS011;12992;50.884;13.668;2022-08-11T09:31:25;2.05;;;1.80;;
24961;SDS011;12992;50.884;13.668;2022-08-11T09:33:57;3.03;;;1.65;;
24961;SDS011;12992;50.884;13.668;2022-08-11T09:36:23;1.90;;;1.70;;
24961;SDS011;12992;50.884;13.668;2022-08-11T09:39:08;3.72;;;1.70;;
24961;SDS011;12992;50.884;13.668;2022-08-11T09:41:53;4.20;;;1.95;;
24961;SDS011;12992;50.884;13.668;2022-08-11T09:44:19;4.13;;;2.45;;
24961;SDS011;12992;50.884;13.668;2022-08-11T09:47:04;2.20;;;1.80;;
24961;SDS011;12992;50.884;13.668;2022-08-11T09:49:37;2.63;;;2.13;;
24961;SDS011;12992;50.884;13.668;2022-08-11T09:52:02;3.45;;;1.80;;
24961;SDS011;12992;50.884;13.668;2022-08-11T09:54:30;2.88;;;2.08;;
24961;SDS011;12992;50.884;13.668;2022-08-11T09:56:56;4.45;;;1.77;;
24961;SDS011;12992;50.884;13.668;2022-08-11T09:59:40;4.20;;;1.80;;
24961;SDS011;12992;50.884;13.668;2022-08-11T10:02:05;3.10;;;1.70;;
24961;SDS011;12992;50.884;13.668;2022-08-11T10:04:40;6.68;;;1.88;;
24961;SDS011;12992;50.884;13.668;2022-08-11T10:07:09;2.63;;;1.90;;
24961;SDS011;12992;50.884;13.668;2022-08-11T10:12:19;1.40;;;1.30;;
24961;SDS011;12992;50.884;13.668;2022-08-11T10:14:49;3.17;;;2.05;;
24961;SDS011;12992;50.884;13.668;2022-08-11T10:17:37;1.73;;;1.60;;
24961;SDS011;12992;50.884;13.668;2022-08-11T10:20:27;5.15;;;1.90;;
24961;SDS011;12992;50.884;13.668;2022-08-11T10:22:54;4.00;;;1.63;;
24961;SDS011;12992;50.884;13.668;2022-08-11T10:25:38;3.58;;;1.58;;
24961;SDS011;12992;50.884;13.668;2022-08-11T10:28:22;4.10;;;1.60;;
24961;SDS011;12992;50.884;13.668;2022-08-11T10:30:47;3.90;;;1.80;;
24961;SDS011;12992;50.884;13.668;2022-08-11T10:33:34;3.05;;;1.50;;
24961;SDS011;12992;50.884;13.668;2022-08-11T10:36:19;2.47;;;1.60;;
24961;SDS011;12992;50.884;13.668;2022-08-11T10:38:45;2.60;;;1.75;;
24961;SDS011;12992;50.884;13.668;2022-08-11T10:41:16;5.05;;;1.90;;
24961;SDS011;12992;50.884;13.668;2022-08-11T10:44:01;1.67;;;1.58;;
24961;SDS011;12992;50.884;13.668;2022-08-11T10:46:29;2.83;;;1.40;;
24961;SDS011;12992;50.884;13.668;2022-08-11T10:49:13;3.65;;;1.70;;
24961;SDS011;12992;50.884;13.668;2022-08-11T10:51:39;9.05;;;1.55;;
24961;SDS011;12992;50.884;13.668;2022-08-11T10:54:23;2.33;;;1.50;;
24961;SDS011;12992;50.884;13.668;2022-08-11T10:57:08;3.70;;;1.42;;
24961;SDS011;12992;50.884;13.668;2022-08-11T10:59:53;1.63;;;1.27;;
24961;SDS011;12992;50.884;13.668;2022-08-11T11:02:20;9.50;;;1.58;;
24961;SDS011;12992;50.884;13.668;2022-08-11T11:04:51;2.30;;;1.33;;
24961;SDS011;12992;50.884;13.668;2022-08-11T11:07:26;3.35;;;1.50;;
24961;SDS011;12992;50.884;13.668;2022-08-11T11:10:00;2.67;;;1.20;;
24961;SDS011;12992;50.884;13.668;2022-08-11T11:15:34;2.70;;;1.23;;
24961;SDS011;12992;50.884;13.668;2022-08-11T11:18:26;6.90;;;1.58;;
24961;SDS011;12992;50.884;13.668;2022-08-11T11:21:15;3.50;;;1.40;;
24961;SDS011;12992;50.884;13.668;2022-08-11T11:26:56;2.80;;;1.10;;
24961;SDS011;12992;50.884;13.668;2022-08-11T11:29:38;2.53;;;1.25;;
24961;SDS011;12992;50.884;13.668;2022-08-11T11:37:39;4.53;;;1.23;;
24961;SDS011;12992;50.884;13.668;2022-08-11T11:40:12;2.35;;;1.20;;
24961;SDS011;12992;50.884;13.668;2022-08-11T11:42:40;2.77;;;0.90;;
24961;SDS011;12992;50.884;13.668;2022-08-11T11:45:08;1.33;;;1.23;;
24961;SDS011;12992;50.884;13.668;2022-08-11T11:47:39;3.05;;;1.13;;
24961;SDS011;12992;50.884;13.668;2022-08-11T11:50:05;6.57;;;1.30;;
24961;SDS011;12992;50.884;13.668;2022-08-11T11:52:32;1.20;;;1.10;;
24961;SDS011;12992;50.884;13.668;2022-08-11T11:54:59;3.97;;;1.17;;
24961;SDS011;12992;50.884;13.668;2022-08-11T11:57:26;1.65;;;1.40;;
24961;SDS011;12992;50.884;13.668;2022-08-11T12:00:10;4.28;;;1.25;;
24961;SDS011;12992;50.884;13.668;2022-08-11T12:02:55;4.82;;;1.15;;
24961;SDS011;12992;50.884;13.668;2022-08-11T12:05:24;2.78;;;1.10;;
24961;SDS011;12992;50.884;13.668;2022-08-11T12:07:50;6.13;;;1.20;;
24961;SDS011;12992;50.884;13.668;2022-08-11T12:10:36;2.47;;;1.02;;
24961;SDS011;12992;50.884;13.668;2022-08-11T12:13:03;2.53;;;1.08;;
24961;SDS011;12992;50.884;13.668;2022-08-11T12:15:47;1.70;;;1.10;;
24961;SDS011;12992;50.884;13.668;2022-08-11T12:18:14;1.80;;;1.00;;
24961;SDS011;12992;50.884;13.668;2022-08-11T12:20:41;1.48;;;0.93;;
24961;SDS011;12992;50.884;13.668;2022-08-11T12:23:08;2.30;;;1.00;;
24961;SDS011;12992;50.884;13.668;2022-08-11T12:25:53;1.52;;;1.00;;
24961;SDS011;12992;50.884;13.668;2022-08-11T12:28:38;2.83;;;1.20;;
24961;SDS011;12992;50.884;13.668;2022-08-11T12:31:04;2.15;;;1.38;;
24961;SDS011;12992;50.884;13.668;2022-08-11T12:33:33;1.02;;;0.90;;
24961;SDS011;12992;50.884;13.668;2022-08-11T12:35:59;2.55;;;1.10;;
24961;SDS011;12992;50.884;13.668;2022-08-11T12:38:25;1.90;;;1.20;;
24961;SDS011;12992;50.884;13.668;2022-08-11T12:40:51;0.90;;;0.90;;
24961;SDS011;12992;50.884;13.668;2022-08-11T12:43:37;2.30;;;1.10;;
24961;SDS011;12992;50.884;13.668;2022-08-11T12:46:28;1.20;;;1.10;;
24961;SDS011;12992;50.884;13.668;2022-08-11T12:48:57;1.88;;;0.80;;
24961;SDS011;12992;50.884;13.668;2022-08-11T12:51:45;2.95;;;1.17;;
24961;SDS011;12992;50.884;13.668;2022-08-11T12:54:30;3.35;;;1.00;;
24961;SDS011;12992;50.884;13.668;2022-08-11T12:57:00;1.98;;;1.20;;
24961;SDS011;12992;50.884;13.668;2022-08-11T12:59:48;0.93;;;0.93;;
24961;SDS011;12992;50.884;13.668;2022-08-11T13:02:34;0.93;;;0.90;;
24961;SDS011;12992;50.884;13.668;2022-08-11T13:05:19;1.65;;;1.17;;
24961;SDS011;12992;50.884;13.668;2022-08-11T13:07:45;1.80;;;0.95;;
24961;SDS011;12992;50.884;13.668;2022-08-11T13:10:13;2.60;;;1.00;;
24961;SDS011;12992;50.884;13.668;2022-08-11T13:13:02;0.98;;;0.90;;
24961;SDS011;12992;50.884;13.668;2022-08-11T13:15:28;3.65;;;1.05;;
24961;SDS011;12992;50.884;13.668;2022-08-11T13:17:54;1.25;;;0.90;;
24961;SDS011;12992;50.884;13.668;2022-08-11T13:20:21;1.38;;;0.73;;
24961;SDS011;12992;50.884;13.668;2022-08-11T13:22:48;2.45;;;0.90;;
24961;SDS011;12992;50.884;13.668;2022-08-11T13:25:19;1.58;;;1.00;;
24961;SDS011;12992;50.884;13.668;2022-08-11T13:27:47;1.10;;;1.00;;
24961;SDS011;12992;50.884;13.668;2022-08-11T13:30:15;2.25;;;1.00;;
24961;SDS011;12992;50.884;13.668;2022-08-11T13:33:00;1.90;;;1.23;;
24961;SDS011;12992;50.884;13.668;2022-08-11T13:35:28;1.45;;;1.00;;
24961;SDS011;12992;50.884;13.668;2022-08-11T13:37:55;2.22;;;0.90;;
24961;SDS011;12992;50.884;13.668;2022-08-11T13:40:22;3.85;;;1.33;;
24961;SDS011;12992;50.884;13.668;2022-08-11T13:42:49;1.48;;;1.00;;
24961;SDS011;12992;50.884;13.668;2022-08-11T13:45:16;2.95;;;1.00;;
24961;SDS011;12992;50.884;13.668;2022-08-11T13:47:43;2.65;;;1.10;;
24961;SDS011;12992;50.884;13.668;2022-08-11T13:50:09;3.50;;;1.40;;
24961;SDS011;12992;50.884;13.668;2022-08-11T13:52:37;1.45;;;1.10;;
24961;SDS011;12992;50.884;13.668;2022-08-11T13:55:05;2.05;;;1.63;;
24961;SDS011;12992;50.884;13.668;2022-08-11T13:57:33;2.05;;;1.23;;
24961;SDS011;12992;50.884;13.668;2022-08-11T13:59:59;2.50;;;1.20;;
24961;SDS011;12992;50.884;13.668;2022-08-11T14:02:40;1.80;;;1.10;;
24961;SDS011;12992;50.884;13.668;2022-08-11T14:05:09;1.25;;;1.00;;
24961;SDS011;12992;50.884;13.668;2022-08-11T14:07:40;2.28;;;1.10;;
24961;SDS011;12992;50.884;13.668;2022-08-11T14:10:12;2.22;;;1.30;;
24961;SDS011;12992;50.884;13.668;2022-08-11T14:12:40;4.00;;;1.55;;
24961;SDS011;12992;50.884;13.668;2022-08-11T14:15:27;1.88;;;1.35;;
24961;SDS011;12992;50.884;13.668;2022-08-11T14:17:58;2.47;;;1.40;;
24961;SDS011;12992;50.884;13.668;2022-08-11T14:20:30;1.67;;;1.25;;
24961;SDS011;12992;50.884;13.668;2022-08-11T14:23:16;4.18;;;1.40;;
24961;SDS011;12992;50.884;13.668;2022-08-11T14:25:48;2.45;;;1.50;;
24961;SDS011;12992;50.884;13.668;2022-08-11T14:28:32;3.33;;;1.30;;
24961;SDS011;12992;50.884;13.668;2022-08-11T14:30:59;2.28;;;1.58;;
24961;SDS011;12992;50.884;13.668;2022-08-11T14:33:26;2.08;;;1.40;;
24961;SDS011;12992;50.884;13.668;2022-08-11T14:35:54;3.97;;;1.40;;
24961;SDS011;12992;50.884;13.668;2022-08-11T14:38:20;3.85;;;1.60;;
24961;SDS011;12992;50.884;13.668;2022-08-11T14:40:46;1.83;;;1.38;;
24961;SDS011;12992;50.884;13.668;2022-08-11T14:43:31;1.33;;;1.23;;
24961;SDS011;12992;50.884;13.668;2022-08-11T14:46:15;2.58;;;1.20;;
24961;SDS011;12992;50.884;13.668;2022-08-11T14:49:00;1.50;;;1.30;;
24961;SDS011;12992;50.884;13.668;2022-08-11T14:51:26;2.53;;;1.40;;
24961;SDS011;12992;50.884;13.668;2022-08-11T14:53:52;1.27;;;1.13;;
24961;SDS011;12992;50.884;13.668;2022-08-11T14:56:37;1.63;;;1.20;;
24961;SDS011;12992;50.884;13.668;2022-08-11T14:59:04;2.92;;;1.40;;
24961;SDS011;12992;50.884;13.668;2022-08-11T15:01:31;4.55;;;1.20;;
24961;SDS011;12992;50.884;13.668;2022-08-11T15:04:15;2.50;;;1.30;;
24961;SDS011;12992;50.884;13.668;2022-08-11T15:06:40;3.38;;;1.42;;
24961;SDS011;12992;50.884;13.668;2022-08-11T15:09:07;1.27;;;1.10;;
24961;SDS011;12992;50.884;13.668;2022-08-11T15:11:32;1.92;;;1.40;;
24961;SDS011;12992;50.884;13.668;2022-08-11T15:14:17;1.77;;;1.30;;
24961;SDS011;12992;50.884;13.668;2022-08-11T15:17:02;3.25;;;1.25;;
24961;SDS011;12992;50.884;13.668;2022-08-11T15:19:33;1.40;;;1.20;;
24961;SDS011;12992;50.884;13.668;2022-08-11T15:22:00;2.40;;;1.70;;
24961;SDS011;12992;50.884;13.668;2022-08-11T15:24:44;3.80;;;1.38;;
24961;SDS011;12992;50.884;13.668;2022-08-11T15:27:11;2.60;;;1.65;;
24961;SDS011;12992;50.884;13.668;2022-08-11T15:29:58;2.65;;;1.40;;
24961;SDS011;12992;50.884;13.668;2022-08-11T15:32:44;2.65;;;1.30;;
24961;SDS011;12992;50.884;13.668;2022-08-11T15:35:29;4.65;;;1.70;;
24961;SDS011;12992;50.884;13.668;2022-08-11T15:38:16;4.47;;;1.30;;
24961;SDS011;12992;50.884;13.668;2022-08-11T15:40:45;5.43;;;1.40;;
24961;SDS011;12992;50.884;13.668;2022-08-11T15:46:31;1.27;;;1.05;;
24961;SDS011;12992;50.884;13.668;2022-08-11T15:49:05;1.90;;;1.50;;
24961;SDS011;12992;50.884;13.668;2022-08-11T15:51:36;5.93;;;1.35;;
24961;SDS011;12992;50.884;13.668;2022-08-11T15:54:09;1.42;;;1.30;;
24961;SDS011;12992;50.884;13.668;2022-08-11T15:56:40;2.40;;;1.38;;
24961;SDS011;12992;50.884;13.668;2022-08-11T15:59:08;1.77;;;1.38;;
24961;SDS011;12992;50.884;13.668;2022-08-11T16:01:56;1.50;;;1.30;;
24961;SDS011;12992;50.884;13.668;2022-08-11T16:04:54;5.25;;;2.00;;
24961;SDS011;12992;50.884;13.668;2022-08-11T16:07:23;1.98;;;1.48;;
24961;SDS011;12992;50.884;13.668;2022-08-11T16:10:07;3.17;;;1.40;;
24961;SDS011;12992;50.884;13.668;2022-08-11T16:12:45;1.67;;;1.20;;
24961;SDS011;12992;50.884;13.668;2022-08-11T16:15:30;2.33;;;1.48;;
24961;SDS011;12992;50.884;13.668;2022-08-11T16:18:19;1.30;;;1.20;;
24961;SDS011;12992;50.884;13.668;2022-08-11T16:20:49;3.13;;;1.20;;
24961;SDS011;12992;50.884;13.668;2022-08-11T16:23:19;2.20;;;1.50;;
24961;SDS011;12992;50.884;13.668;2022-08-11T16:25:45;2.50;;;1.60;;
24961;SDS011;12992;50.884;13.668;2022-08-11T16:28:12;2.42;;;1.40;;
24961;SDS011;12992;50.884;13.668;2022-08-11T16:30:40;1.30;;;1.20;;
24961;SDS011;12992;50.884;13.668;2022-08-11T16:33:08;3.30;;;1.67;;
24961;SDS011;12992;50.884;13.668;2022-08-11T16:35:36;1.63;;;1.35;;
24961;SDS011;12992;50.884;13.668;2022-08-11T16:38:21;4.15;;;1.35;;
24961;SDS011;12992;50.884;13.668;2022-08-11T16:41:00;3.25;;;1.23;;
24961;SDS011;12992;50.884;13.668;2022-08-11T16:43:28;4.50;;;1.70;;
24961;SDS011;12992;50.884;13.668;2022-08-11T16:46:14;2.75;;;1.30;;
24961;SDS011;12992;50.884;13.668;2022-08-11T16:49:33;3.70;;;1.58;;
24961;SDS011;12992;50.884;13.668;2022-08-11T16:51:59;2.88;;;1.40;;
24961;SDS011;12992;50.884;13.668;2022-08-11T16:54:28;1.90;;;1.30;;
24961;SDS011;12992;50.884;13.668;2022-08-11T16:56:54;2.65;;;1.15;;
24961;SDS011;12992;50.884;13.668;2022-08-11T16:59:23;4.18;;;1.40;;
24961;SDS011;12992;50.884;13.668;2022-08-11T17:01:55;1.90;;;1.25;;
24961;SDS011;12992;50.884;13.668;2022-08-11T17:04:27;1.50;;;1.20;;
24961;SDS011;12992;50.884;13.668;2022-08-11T17:07:19;1.52;;;1.17;;
24961;SDS011;12992;50.884;13.668;2022-08-11T17:10:05;2.13;;;1.20;;
24961;SDS011;12992;50.884;13.668;2022-08-11T17:12:53;1.80;;;1.17;;
24961;SDS011;12992;50.884;13.668;2022-08-11T17:15:36;3.35;;;1.58;;
24961;SDS011;12992;50.884;13.668;2022-08-11T17:18:23;1.70;;;1.20;;
24961;SDS011;12992;50.884;13.668;2022-08-11T17:21:04;2.35;;;1.42;;
24961;SDS011;12992;50.884;13.668;2022-08-11T17:23:32;2.35;;;1.63;;
24961;SDS011;12992;50.884;13.668;2022-08-11T17:32:05;5.22;;;1.30;;
24961;SDS011;12992;50.884;13.668;2022-08-11T17:34:53;1.75;;;1.27;;
24961;SDS011;12992;50.884;13.668;2022-08-11T17:37:43;3.80;;;1.47;;
24961;SDS011;12992;50.884;13.668;2022-08-11T17:40:12;3.05;;;1.20;;
24961;SDS011;12992;50.884;13.668;2022-08-11T17:42:40;2.70;;;1.15;;
24961;SDS011;12992;50.884;13.668;2022-08-11T17:45:27;2.42;;;1.10;;
24961;SDS011;12992;50.884;13.668;2022-08-11T17:48:11;2.38;;;1.10;;
24961;SDS011;12992;50.884;13.668;2022-08-11T17:50:53;2.65;;;1.20;;
24961;SDS011;12992;50.884;13.668;2022-08-11T17:53:23;2.47;;;1.38;;
24961;SDS011;12992;50.884;13.668;2022-08-11T17:56:07;2.38;;;1.30;;
24961;SDS011;12992;50.884;13.668;2022-08-11T17:58:53;2.50;;;1.00;;
24961;SDS011;12992;50.884;13.668;2022-08-11T18:01:38;2.47;;;1.00;;
24961;SDS011;12992;50.884;13.668;2022-08-11T18:04:06;1.50;;;1.08;;
24961;SDS011;12992;50.884;13.668;2022-08-11T18:06:34;1.30;;;1.20;;
24961;SDS011;12992;50.884;13.668;2022-08-11T18:09:06;1.10;;;1.00;;